sensor_id;sensor_type;location;lat;lon;timestamp;P1;durP1;ratioP1;P2;durP2;ratioP2
23472;SDS011;11909;52.516;13.564;2022-10-15T00:00:35;21.23;;;16.73;;
23472;SDS011;11909;52.516;13.564;2022-10-15T00:03:02;22.23;;;17.05;;
23472;SDS011;11909;52.516;13.564;2022-10-15T00:05:30;22.85;;;18.08;;
23472;SDS011;11909;52.516;13.564;2022-10-15T00:07:56;25.63;;;16.63;;
23472;SDS011;11909;52.516;13.564;2022-10-15T00:10:23;24.40;;;17.10;;
23472;SDS011;11909;52.516;13.564;2022-10-15T00:12:49;25.73;;;19.02;;
23472;SDS011;11909;52.516;13.564;2022-10-15T00:15:16;21.65;;;16.60;;
23472;SDS011;11909;52.516;13.564;2022-10-15T00:17:42;25.83;;;17.67;;
23472;SDS011;11909;52.516;13.564;2022-10-15T00:20:09;23.88;;;17.70;;
23472;SDS011;11909;52.516;13.564;2022-10-15T00:22:38;24.35;;;18.85;;
23472;SDS011;11909;52.516;13.564;2022-10-15T00:25:05;23.40;;;17.55;;
23472;SDS011;11909;52.516;13.564;2022-10-15T00:27:32;23.48;;;16.50;;
23472;SDS011;11909;52.516;13.564;2022-10-15T00:29:59;28.67;;;19.15;;
23472;SDS011;11909;52.516;13.564;2022-10-15T00:32:27;22.95;;;17.90;;
23472;SDS011;11909;52.516;13.564;2022-10-15T00:34:53;25.92;;;18.42;;
23472;SDS011;11909;52.516;13.564;2022-10-15T00:37:20;23.38;;;17.83;;
23472;SDS011;11909;52.516;13.564;2022-10-15T00:39:48;26.48;;;19.77;;
23472;SDS011;11909;52.516;13.564;2022-10-15T00:42:14;21.05;;;16.88;;
23472;SDS011;11909;52.516;13.564;2022-10-15T00:44:51;24.60;;;17.70;;
23472;SDS011;11909;52.516;13.564;2022-10-15T00:47:22;24.33;;;18.00;;
23472;SDS011;11909;52.516;13.564;2022-10-15T00:49:54;24.30;;;18.33;;
23472;SDS011;11909;52.516;13.564;2022-10-15T00:52:29;23.80;;;17.80;;
23472;SDS011;11909;52.516;13.564;2022-10-15T00:55:07;24.65;;;17.23;;
23472;SDS011;11909;52.516;13.564;2022-10-15T00:57:37;23.45;;;18.20;;
23472;SDS011;11909;52.516;13.564;2022-10-15T01:00:07;25.02;;;17.75;;
23472;SDS011;11909;52.516;13.564;2022-10-15T01:02:35;23.55;;;17.23;;
23472;SDS011;11909;52.516;13.564;2022-10-15T01:05:02;25.27;;;17.95;;
23472;SDS011;11909;52.516;13.564;2022-10-15T01:07:29;22.58;;;17.38;;
23472;SDS011;11909;52.516;13.564;2022-10-15T01:09:55;23.67;;;18.33;;
23472;SDS011;11909;52.516;13.564;2022-10-15T01:12:27;26.50;;;18.83;;
23472;SDS011;11909;52.516;13.564;2022-10-15T01:15:04;24.80;;;17.60;;
23472;SDS011;11909;52.516;13.564;2022-10-15T01:17:39;27.60;;;18.40;;
23472;SDS011;11909;52.516;13.564;2022-10-15T01:20:19;25.08;;;19.25;;
23472;SDS011;11909;52.516;13.564;2022-10-15T01:23:01;22.52;;;17.60;;
23472;SDS011;11909;52.516;13.564;2022-10-15T01:25:54;24.63;;;17.48;;
23472;SDS011;11909;52.516;13.564;2022-10-15T01:31:09;23.35;;;17.83;;
23472;SDS011;11909;52.516;13.564;2022-10-15T01:33:46;21.75;;;16.88;;
23472;SDS011;11909;52.516;13.564;2022-10-15T01:36:22;23.48;;;17.20;;
23472;SDS011;11909;52.516;13.564;2022-10-15T01:38:58;23.40;;;17.42;;
23472;SDS011;11909;52.516;13.564;2022-10-15T01:41:30;23.08;;;17.70;;
23472;SDS011;11909;52.516;13.564;2022-10-15T01:44:06;27.60;;;19.33;;
23472;SDS011;11909;52.516;13.564;2022-10-15T01:46:37;23.27;;;18.05;;
23472;SDS011;11909;52.516;13.564;2022-10-15T01:49:08;23.17;;;17.05;;
23472;SDS011;11909;52.516;13.564;2022-10-15T01:51:39;26.77;;;18.67;;
23472;SDS011;11909;52.516;13.564;2022-10-15T01:54:09;23.27;;;17.00;;
23472;SDS011;11909;52.516;13.564;2022-10-15T01:56:39;21.88;;;18.00;;
23472;SDS011;11909;52.516;13.564;2022-10-15T01:59:10;24.27;;;18.33;;
23472;SDS011;11909;52.516;13.564;2022-10-15T02:01:42;24.60;;;17.40;;
23472;SDS011;11909;52.516;13.564;2022-10-15T02:04:15;26.48;;;18.67;;
23472;SDS011;11909;52.516;13.564;2022-10-15T02:06:43;23.23;;;17.60;;
23472;SDS011;11909;52.516;13.564;2022-10-15T02:09:14;21.50;;;16.90;;
23472;SDS011;11909;52.516;13.564;2022-10-15T02:11:49;25.42;;;18.08;;
23472;SDS011;11909;52.516;13.564;2022-10-15T02:14:23;25.42;;;17.00;;
23472;SDS011;11909;52.516;13.564;2022-10-15T02:16:56;22.25;;;16.73;;
23472;SDS011;11909;52.516;13.564;2022-10-15T02:19:31;24.15;;;18.10;;
23472;SDS011;11909;52.516;13.564;2022-10-15T02:22:07;28.30;;;17.95;;
23472;SDS011;11909;52.516;13.564;2022-10-15T02:24:38;22.27;;;16.98;;
23472;SDS011;11909;52.516;13.564;2022-10-15T02:27:09;24.42;;;16.63;;
23472;SDS011;11909;52.516;13.564;2022-10-15T02:29:38;26.15;;;18.38;;
23472;SDS011;11909;52.516;13.564;2022-10-15T02:32:09;24.87;;;18.23;;
23472;SDS011;11909;52.516;13.564;2022-10-15T02:34:37;24.73;;;17.67;;
23472;SDS011;11909;52.516;13.564;2022-10-15T02:37:04;22.63;;;17.48;;
23472;SDS011;11909;52.516;13.564;2022-10-15T02:39:33;24.90;;;17.98;;
23472;SDS011;11909;52.516;13.564;2022-10-15T02:42:00;23.80;;;17.10;;
23472;SDS011;11909;52.516;13.564;2022-10-15T02:44:27;30.85;;;18.73;;
23472;SDS011;11909;52.516;13.564;2022-10-15T02:46:53;27.65;;;17.92;;
23472;SDS011;11909;52.516;13.564;2022-10-15T02:49:22;25.15;;;18.35;;
23472;SDS011;11909;52.516;13.564;2022-10-15T02:51:48;24.50;;;17.58;;
23472;SDS011;11909;52.516;13.564;2022-10-15T02:54:15;23.05;;;16.70;;
23472;SDS011;11909;52.516;13.564;2022-10-15T02:56:41;30.60;;;19.10;;
23472;SDS011;11909;52.516;13.564;2022-10-15T02:59:08;28.58;;;18.77;;
23472;SDS011;11909;52.516;13.564;2022-10-15T03:01:34;24.50;;;17.33;;
23472;SDS011;11909;52.516;13.564;2022-10-15T03:04:01;22.30;;;16.33;;
23472;SDS011;11909;52.516;13.564;2022-10-15T03:06:29;30.55;;;19.20;;
23472;SDS011;11909;52.516;13.564;2022-10-15T03:08:55;25.08;;;18.40;;
23472;SDS011;11909;52.516;13.564;2022-10-15T03:11:22;24.23;;;17.60;;
23472;SDS011;11909;52.516;13.564;2022-10-15T03:13:48;23.30;;;17.42;;
23472;SDS011;11909;52.516;13.564;2022-10-15T03:16:14;25.67;;;19.38;;
23472;SDS011;11909;52.516;13.564;2022-10-15T03:18:41;23.02;;;17.55;;
23472;SDS011;11909;52.516;13.564;2022-10-15T03:21:07;25.88;;;18.77;;
23472;SDS011;11909;52.516;13.564;2022-10-15T03:23:35;25.05;;;17.83;;
23472;SDS011;11909;52.516;13.564;2022-10-15T03:26:02;23.23;;;17.83;;
23472;SDS011;11909;52.516;13.564;2022-10-15T03:28:28;25.05;;;18.40;;
23472;SDS011;11909;52.516;13.564;2022-10-15T03:30:55;23.73;;;16.70;;
23472;SDS011;11909;52.516;13.564;2022-10-15T03:33:21;26.38;;;17.60;;
23472;SDS011;11909;52.516;13.564;2022-10-15T03:35:48;23.92;;;16.73;;
23472;SDS011;11909;52.516;13.564;2022-10-15T03:38:14;24.75;;;18.08;;
23472;SDS011;11909;52.516;13.564;2022-10-15T03:40:42;23.98;;;17.25;;
23472;SDS011;11909;52.516;13.564;2022-10-15T03:43:09;22.13;;;16.92;;
23472;SDS011;11909;52.516;13.564;2022-10-15T03:45:35;22.35;;;16.92;;
23472;SDS011;11909;52.516;13.564;2022-10-15T03:48:02;19.33;;;15.18;;
23472;SDS011;11909;52.516;13.564;2022-10-15T03:50:29;22.67;;;15.18;;
23472;SDS011;11909;52.516;13.564;2022-10-15T03:52:55;21.73;;;16.10;;
23472;SDS011;11909;52.516;13.564;2022-10-15T03:55:22;25.35;;;18.15;;
23472;SDS011;11909;52.516;13.564;2022-10-15T03:57:50;23.05;;;16.45;;
23472;SDS011;11909;52.516;13.564;2022-10-15T04:00:16;19.73;;;15.70;;
23472;SDS011;11909;52.516;13.564;2022-10-15T04:02:42;20.45;;;15.35;;
23472;SDS011;11909;52.516;13.564;2022-10-15T04:05:09;21.55;;;16.00;;
23472;SDS011;11909;52.516;13.564;2022-10-15T04:07:35;22.52;;;16.50;;
23472;SDS011;11909;52.516;13.564;2022-10-15T04:10:02;19.83;;;16.40;;
23472;SDS011;11909;52.516;13.564;2022-10-15T04:12:28;19.65;;;15.70;;
23472;SDS011;11909;52.516;13.564;2022-10-15T04:14:56;20.70;;;16.00;;
23472;SDS011;11909;52.516;13.564;2022-10-15T04:17:23;22.88;;;17.55;;
23472;SDS011;11909;52.516;13.564;2022-10-15T04:19:49;23.67;;;16.55;;
23472;SDS011;11909;52.516;13.564;2022-10-15T04:22:15;21.20;;;15.95;;
23472;SDS011;11909;52.516;13.564;2022-10-15T04:24:42;21.27;;;15.93;;
23472;SDS011;11909;52.516;13.564;2022-10-15T04:27:08;21.27;;;16.33;;
23472;SDS011;11909;52.516;13.564;2022-10-15T04:29:35;20.33;;;16.20;;
23472;SDS011;11909;52.516;13.564;2022-10-15T04:32:03;24.92;;;17.65;;
23472;SDS011;11909;52.516;13.564;2022-10-15T04:34:30;24.98;;;17.50;;
23472;SDS011;11909;52.516;13.564;2022-10-15T04:36:56;24.35;;;18.25;;
23472;SDS011;11909;52.516;13.564;2022-10-15T04:39:23;19.08;;;14.65;;
23472;SDS011;11909;52.516;13.564;2022-10-15T04:41:49;22.30;;;16.60;;
23472;SDS011;11909;52.516;13.564;2022-10-15T04:44:15;24.08;;;18.17;;
23472;SDS011;11909;52.516;13.564;2022-10-15T04:46:42;22.90;;;16.95;;
23472;SDS011;11909;52.516;13.564;2022-10-15T04:49:10;24.92;;;16.77;;
23472;SDS011;11909;52.516;13.564;2022-10-15T04:51:36;23.30;;;17.77;;
23472;SDS011;11909;52.516;13.564;2022-10-15T04:54:03;25.65;;;17.33;;
23472;SDS011;11909;52.516;13.564;2022-10-15T04:56:29;22.25;;;17.27;;
23472;SDS011;11909;52.516;13.564;2022-10-15T04:58:56;20.88;;;16.00;;
23472;SDS011;11909;52.516;13.564;2022-10-15T05:01:22;22.55;;;17.52;;
23472;SDS011;11909;52.516;13.564;2022-10-15T05:03:48;26.05;;;17.70;;
23472;SDS011;11909;52.516;13.564;2022-10-15T05:06:17;27.80;;;17.80;;
23472;SDS011;11909;52.516;13.564;2022-10-15T05:08:44;25.85;;;19.55;;
23472;SDS011;11909;52.516;13.564;2022-10-15T05:11:12;19.17;;;15.48;;
23472;SDS011;11909;52.516;13.564;2022-10-15T05:13:40;23.73;;;16.95;;
23472;SDS011;11909;52.516;13.564;2022-10-15T05:16:10;21.70;;;16.83;;
23472;SDS011;11909;52.516;13.564;2022-10-15T05:18:38;22.83;;;16.55;;
23472;SDS011;11909;52.516;13.564;2022-10-15T05:21:06;25.20;;;18.00;;
23472;SDS011;11909;52.516;13.564;2022-10-15T05:23:34;22.50;;;17.88;;
23472;SDS011;11909;52.516;13.564;2022-10-15T05:26:02;22.17;;;18.05;;
23472;SDS011;11909;52.516;13.564;2022-10-15T05:28:30;21.55;;;16.75;;
23472;SDS011;11909;52.516;13.564;2022-10-15T05:31:01;20.77;;;16.25;;
23472;SDS011;11909;52.516;13.564;2022-10-15T05:33:29;21.17;;;16.45;;
23472;SDS011;11909;52.516;13.564;2022-10-15T05:35:55;21.33;;;16.25;;
23472;SDS011;11909;52.516;13.564;2022-10-15T05:38:22;26.38;;;17.90;;
23472;SDS011;11909;52.516;13.564;2022-10-15T05:40:50;22.08;;;17.25;;
23472;SDS011;11909;52.516;13.564;2022-10-15T05:43:16;22.00;;;16.17;;
23472;SDS011;11909;52.516;13.564;2022-10-15T05:45:42;20.83;;;16.13;;
23472;SDS011;11909;52.516;13.564;2022-10-15T05:48:09;24.48;;;16.23;;
23472;SDS011;11909;52.516;13.564;2022-10-15T05:50:35;23.10;;;17.65;;
23472;SDS011;11909;52.516;13.564;2022-10-15T05:53:02;25.25;;;18.45;;
23472;SDS011;11909;52.516;13.564;2022-10-15T05:55:28;24.05;;;17.17;;
23472;SDS011;11909;52.516;13.564;2022-10-15T05:57:57;20.40;;;15.93;;
23472;SDS011;11909;52.516;13.564;2022-10-15T06:00:26;29.23;;;18.98;;
23472;SDS011;11909;52.516;13.564;2022-10-15T06:02:52;21.75;;;17.08;;
23472;SDS011;11909;52.516;13.564;2022-10-15T06:05:19;29.55;;;17.58;;
23472;SDS011;11909;52.516;13.564;2022-10-15T06:07:45;26.17;;;18.35;;
23472;SDS011;11909;52.516;13.564;2022-10-15T06:10:11;21.85;;;17.25;;
23472;SDS011;11909;52.516;13.564;2022-10-15T06:12:38;25.98;;;18.55;;
23472;SDS011;11909;52.516;13.564;2022-10-15T06:15:06;20.70;;;15.63;;
23472;SDS011;11909;52.516;13.564;2022-10-15T06:17:33;22.98;;;17.23;;
23472;SDS011;11909;52.516;13.564;2022-10-15T06:20:00;21.40;;;17.13;;
23472;SDS011;11909;52.516;13.564;2022-10-15T06:22:29;23.15;;;17.42;;
23472;SDS011;11909;52.516;13.564;2022-10-15T06:24:56;24.88;;;19.52;;
23472;SDS011;11909;52.516;13.564;2022-10-15T06:27:22;28.35;;;20.45;;
23472;SDS011;11909;52.516;13.564;2022-10-15T06:29:49;52.47;;;37.90;;
23472;SDS011;11909;52.516;13.564;2022-10-15T06:32:16;36.47;;;26.73;;
23472;SDS011;11909;52.516;13.564;2022-10-15T06:34:43;23.50;;;17.38;;
23472;SDS011;11909;52.516;13.564;2022-10-15T06:37:09;21.75;;;17.13;;
23472;SDS011;11909;52.516;13.564;2022-10-15T06:39:36;21.17;;;15.60;;
23472;SDS011;11909;52.516;13.564;2022-10-15T06:42:02;23.08;;;16.45;;
23472;SDS011;11909;52.516;13.564;2022-10-15T06:44:29;27.23;;;18.48;;
23472;SDS011;11909;52.516;13.564;2022-10-15T06:46:55;24.13;;;17.05;;
23472;SDS011;11909;52.516;13.564;2022-10-15T06:49:24;20.75;;;15.82;;
23472;SDS011;11909;52.516;13.564;2022-10-15T06:51:50;23.92;;;16.08;;
23472;SDS011;11909;52.516;13.564;2022-10-15T06:54:17;20.35;;;16.38;;
23472;SDS011;11909;52.516;13.564;2022-10-15T06:56:43;20.50;;;15.48;;
23472;SDS011;11909;52.516;13.564;2022-10-15T06:59:10;20.50;;;15.80;;
23472;SDS011;11909;52.516;13.564;2022-10-15T07:01:36;20.00;;;16.17;;
23472;SDS011;11909;52.516;13.564;2022-10-15T07:04:03;21.75;;;15.40;;
23472;SDS011;11909;52.516;13.564;2022-10-15T07:06:30;16.02;;;13.68;;
23472;SDS011;11909;52.516;13.564;2022-10-15T07:08:57;21.02;;;16.05;;
23472;SDS011;11909;52.516;13.564;2022-10-15T07:11:26;19.92;;;14.38;;
23472;SDS011;11909;52.516;13.564;2022-10-15T07:13:52;20.48;;;15.00;;
23472;SDS011;11909;52.516;13.564;2022-10-15T07:16:21;17.83;;;13.85;;
23472;SDS011;11909;52.516;13.564;2022-10-15T07:18:47;20.83;;;15.90;;
23472;SDS011;11909;52.516;13.564;2022-10-15T07:21:14;17.90;;;14.95;;
23472;SDS011;11909;52.516;13.564;2022-10-15T07:23:42;18.83;;;15.38;;
23472;SDS011;11909;52.516;13.564;2022-10-15T07:26:08;18.77;;;14.75;;
23472;SDS011;11909;52.516;13.564;2022-10-15T07:28:34;22.25;;;15.77;;
23472;SDS011;11909;52.516;13.564;2022-10-15T07:31:01;33.08;;;22.40;;
23472;SDS011;11909;52.516;13.564;2022-10-15T07:33:29;35.90;;;24.75;;
23472;SDS011;11909;52.516;13.564;2022-10-15T07:35:58;20.85;;;15.88;;
23472;SDS011;11909;52.516;13.564;2022-10-15T07:38:27;19.73;;;14.23;;
23472;SDS011;11909;52.516;13.564;2022-10-15T07:40:57;19.63;;;13.65;;
23472;SDS011;11909;52.516;13.564;2022-10-15T07:43:24;16.42;;;13.10;;
23472;SDS011;11909;52.516;13.564;2022-10-15T07:45:50;14.57;;;12.60;;
23472;SDS011;11909;52.516;13.564;2022-10-15T07:48:17;17.27;;;13.25;;
23472;SDS011;11909;52.516;13.564;2022-10-15T07:50:43;17.42;;;12.98;;
23472;SDS011;11909;52.516;13.564;2022-10-15T07:53:10;16.75;;;13.00;;
23472;SDS011;11909;52.516;13.564;2022-10-15T07:55:37;21.20;;;14.40;;
23472;SDS011;11909;52.516;13.564;2022-10-15T07:58:04;22.23;;;14.05;;
23472;SDS011;11909;52.516;13.564;2022-10-15T08:00:32;16.95;;;13.52;;
23472;SDS011;11909;52.516;13.564;2022-10-15T08:02:59;19.67;;;13.82;;
23472;SDS011;11909;52.516;13.564;2022-10-15T08:05:25;14.43;;;11.90;;
23472;SDS011;11909;52.516;13.564;2022-10-15T08:07:51;17.05;;;12.48;;
23472;SDS011;11909;52.516;13.564;2022-10-15T08:10:18;17.92;;;13.18;;
23472;SDS011;11909;52.516;13.564;2022-10-15T08:12:44;16.45;;;12.90;;
23472;SDS011;11909;52.516;13.564;2022-10-15T08:15:12;16.33;;;12.93;;
23472;SDS011;11909;52.516;13.564;2022-10-15T08:17:38;14.38;;;12.20;;
23472;SDS011;11909;52.516;13.564;2022-10-15T08:20:05;18.15;;;13.60;;
23472;SDS011;11909;52.516;13.564;2022-10-15T08:22:32;16.50;;;11.52;;
23472;SDS011;11909;52.516;13.564;2022-10-15T08:24:59;19.00;;;12.90;;
23472;SDS011;11909;52.516;13.564;2022-10-15T08:27:26;17.35;;;12.50;;
23472;SDS011;11909;52.516;13.564;2022-10-15T08:29:52;15.80;;;11.90;;
23472;SDS011;11909;52.516;13.564;2022-10-15T08:32:20;15.55;;;11.70;;
23472;SDS011;11909;52.516;13.564;2022-10-15T08:34:46;17.40;;;12.48;;
23472;SDS011;11909;52.516;13.564;2022-10-15T08:37:13;15.32;;;11.70;;
23472;SDS011;11909;52.516;13.564;2022-10-15T08:39:39;58.35;;;37.38;;
23472;SDS011;11909;52.516;13.564;2022-10-15T08:42:06;24.67;;;18.52;;
23472;SDS011;11909;52.516;13.564;2022-10-15T08:44:42;15.63;;;12.20;;
23472;SDS011;11909;52.516;13.564;2022-10-15T08:47:13;16.35;;;11.68;;
23472;SDS011;11909;52.516;13.564;2022-10-15T08:52:22;14.20;;;11.30;;
23472;SDS011;11909;52.516;13.564;2022-10-15T08:54:51;14.38;;;10.98;;
23472;SDS011;11909;52.516;13.564;2022-10-15T08:57:22;14.35;;;11.63;;
23472;SDS011;11909;52.516;13.564;2022-10-15T09:00:00;13.45;;;10.05;;
23472;SDS011;11909;52.516;13.564;2022-10-15T09:02:33;13.75;;;11.23;;
23472;SDS011;11909;52.516;13.564;2022-10-15T09:05:08;12.90;;;11.05;;
23472;SDS011;11909;52.516;13.564;2022-10-15T09:07:49;13.63;;;10.23;;
23472;SDS011;11909;52.516;13.564;2022-10-15T09:10:22;14.15;;;11.18;;
23472;SDS011;11909;52.516;13.564;2022-10-15T09:12:57;16.90;;;12.23;;
23472;SDS011;11909;52.516;13.564;2022-10-15T09:15:26;14.65;;;10.90;;
23472;SDS011;11909;52.516;13.564;2022-10-15T09:18:00;13.75;;;10.80;;
23472;SDS011;11909;52.516;13.564;2022-10-15T09:20:29;12.80;;;10.43;;
23472;SDS011;11909;52.516;13.564;2022-10-15T09:22:57;13.65;;;9.63;;
23472;SDS011;11909;52.516;13.564;2022-10-15T09:25:24;11.13;;;9.05;;
23472;SDS011;11909;52.516;13.564;2022-10-15T09:27:57;19.08;;;12.05;;
23472;SDS011;11909;52.516;13.564;2022-10-15T09:30:35;12.63;;;9.30;;
23472;SDS011;11909;52.516;13.564;2022-10-15T09:33:11;12.20;;;10.38;;
23472;SDS011;11909;52.516;13.564;2022-10-15T09:35:42;10.60;;;9.43;;
23472;SDS011;11909;52.516;13.564;2022-10-15T09:38:16;11.48;;;8.18;;
23472;SDS011;11909;52.516;13.564;2022-10-15T09:40:55;8.43;;;7.53;;
23472;SDS011;11909;52.516;13.564;2022-10-15T09:43:35;9.82;;;8.00;;
23472;SDS011;11909;52.516;13.564;2022-10-15T09:46:04;11.32;;;7.95;;
23472;SDS011;11909;52.516;13.564;2022-10-15T09:48:34;12.27;;;9.55;;
23472;SDS011;11909;52.516;13.564;2022-10-15T09:51:06;9.98;;;8.48;;
23472;SDS011;11909;52.516;13.564;2022-10-15T09:53:44;48.75;;;33.40;;
23472;SDS011;11909;52.516;13.564;2022-10-15T09:56:17;43.55;;;29.20;;
23472;SDS011;11909;52.516;13.564;2022-10-15T09:58:48;20.75;;;13.77;;
23472;SDS011;11909;52.516;13.564;2022-10-15T10:01:18;11.40;;;9.43;;
23472;SDS011;11909;52.516;13.564;2022-10-15T10:03:49;9.13;;;8.20;;
23472;SDS011;11909;52.516;13.564;2022-10-15T10:06:18;8.93;;;7.55;;
23472;SDS011;11909;52.516;13.564;2022-10-15T10:08:47;8.25;;;7.43;;
23472;SDS011;11909;52.516;13.564;2022-10-15T10:11:16;10.20;;;7.70;;
23472;SDS011;11909;52.516;13.564;2022-10-15T10:13:44;9.60;;;7.75;;
23472;SDS011;11909;52.516;13.564;2022-10-15T10:16:17;10.77;;;7.53;;
23472;SDS011;11909;52.516;13.564;2022-10-15T10:19:00;9.68;;;6.63;;
23472;SDS011;11909;52.516;13.564;2022-10-15T10:21:29;8.90;;;7.13;;
23472;SDS011;11909;52.516;13.564;2022-10-15T10:23:59;9.63;;;6.80;;
23472;SDS011;11909;52.516;13.564;2022-10-15T10:26:50;7.60;;;6.80;;
23472;SDS011;11909;52.516;13.564;2022-10-15T10:29:17;7.93;;;6.60;;
23472;SDS011;11909;52.516;13.564;2022-10-15T10:31:46;7.55;;;6.75;;
23472;SDS011;11909;52.516;13.564;2022-10-15T10:34:17;7.30;;;6.53;;
23472;SDS011;11909;52.516;13.564;2022-10-15T10:36:51;8.20;;;6.72;;
23472;SDS011;11909;52.516;13.564;2022-10-15T10:39:20;7.93;;;5.63;;
23472;SDS011;11909;52.516;13.564;2022-10-15T10:41:52;6.85;;;5.38;;
23472;SDS011;11909;52.516;13.564;2022-10-15T10:44:21;6.18;;;5.40;;
23472;SDS011;11909;52.516;13.564;2022-10-15T10:47:03;6.63;;;5.43;;
23472;SDS011;11909;52.516;13.564;2022-10-15T10:49:37;8.93;;;6.25;;
23472;SDS011;11909;52.516;13.564;2022-10-15T10:52:04;13.48;;;9.90;;
23472;SDS011;11909;52.516;13.564;2022-10-15T10:54:31;6.00;;;5.40;;
23472;SDS011;11909;52.516;13.564;2022-10-15T10:56:59;8.27;;;5.75;;
23472;SDS011;11909;52.516;13.564;2022-10-15T10:59:26;6.70;;;6.00;;
23472;SDS011;11909;52.516;13.564;2022-10-15T11:01:57;6.30;;;5.70;;
23472;SDS011;11909;52.516;13.564;2022-10-15T11:04:24;7.43;;;5.93;;
23472;SDS011;11909;52.516;13.564;2022-10-15T11:06:56;6.85;;;5.28;;
23472;SDS011;11909;52.516;13.564;2022-10-15T11:09:41;10.10;;;7.07;;
23472;SDS011;11909;52.516;13.564;2022-10-15T11:12:20;6.40;;;5.80;;
23472;SDS011;11909;52.516;13.564;2022-10-15T11:14:57;8.23;;;6.85;;
23472;SDS011;11909;52.516;13.564;2022-10-15T11:17:33;6.93;;;6.20;;
23472;SDS011;11909;52.516;13.564;2022-10-15T11:20:12;7.32;;;6.63;;
23472;SDS011;11909;52.516;13.564;2022-10-15T11:22:50;6.75;;;5.93;;
23472;SDS011;11909;52.516;13.564;2022-10-15T11:25:30;7.50;;;6.75;;
23472;SDS011;11909;52.516;13.564;2022-10-15T11:28:12;8.82;;;7.22;;
23472;SDS011;11909;52.516;13.564;2022-10-15T11:30:50;7.80;;;6.95;;
23472;SDS011;11909;52.516;13.564;2022-10-15T11:33:28;8.07;;;7.00;;
23472;SDS011;11909;52.516;13.564;2022-10-15T11:39:06;6.78;;;6.07;;
23472;SDS011;11909;52.516;13.564;2022-10-15T11:41:51;8.40;;;6.28;;
23472;SDS011;11909;52.516;13.564;2022-10-15T11:44:30;8.48;;;5.90;;
23472;SDS011;11909;52.516;13.564;2022-10-15T11:47:10;5.82;;;4.63;;
23472;SDS011;11909;52.516;13.564;2022-10-15T11:49:47;6.85;;;5.40;;
23472;SDS011;11909;52.516;13.564;2022-10-15T11:52:30;5.50;;;4.47;;
23472;SDS011;11909;52.516;13.564;2022-10-15T11:55:09;8.38;;;5.65;;
23472;SDS011;11909;52.516;13.564;2022-10-15T11:57:38;5.68;;;4.70;;
23472;SDS011;11909;52.516;13.564;2022-10-15T12:00:11;7.53;;;5.13;;
23472;SDS011;11909;52.516;13.564;2022-10-15T12:02:44;5.88;;;4.50;;
23472;SDS011;11909;52.516;13.564;2022-10-15T12:05:13;4.90;;;4.05;;
23472;SDS011;11909;52.516;13.564;2022-10-15T12:07:44;5.25;;;3.97;;
23472;SDS011;11909;52.516;13.564;2022-10-15T12:10:16;3.75;;;3.35;;
23472;SDS011;11909;52.516;13.564;2022-10-15T12:12:56;4.78;;;3.88;;
23472;SDS011;11909;52.516;13.564;2022-10-15T12:15:30;4.40;;;4.00;;
23472;SDS011;11909;52.516;13.564;2022-10-15T12:18:03;5.30;;;4.15;;
23472;SDS011;11909;52.516;13.564;2022-10-15T12:20:39;5.55;;;4.07;;
23472;SDS011;11909;52.516;13.564;2022-10-15T12:23:17;4.28;;;3.50;;
23472;SDS011;11909;52.516;13.564;2022-10-15T12:25:50;5.68;;;3.72;;
23472;SDS011;11909;52.516;13.564;2022-10-15T12:28:20;5.28;;;3.65;;
23472;SDS011;11909;52.516;13.564;2022-10-15T12:30:52;4.85;;;4.05;;
23472;SDS011;11909;52.516;13.564;2022-10-15T12:33:25;4.63;;;3.40;;
23472;SDS011;11909;52.516;13.564;2022-10-15T12:35:58;4.28;;;3.47;;
23472;SDS011;11909;52.516;13.564;2022-10-15T12:38:27;4.80;;;3.88;;
23472;SDS011;11909;52.516;13.564;2022-10-15T12:40:58;4.50;;;3.80;;
23472;SDS011;11909;52.516;13.564;2022-10-15T12:43:28;4.93;;;3.20;;
23472;SDS011;11909;52.516;13.564;2022-10-15T12:45:56;4.35;;;3.42;;
23472;SDS011;11909;52.516;13.564;2022-10-15T12:48:30;4.13;;;3.72;;
23472;SDS011;11909;52.516;13.564;2022-10-15T12:57:01;6.20;;;4.22;;
23472;SDS011;11909;52.516;13.564;2022-10-15T12:59:52;8.98;;;6.53;;
23472;SDS011;11909;52.516;13.564;2022-10-15T13:05:22;5.80;;;3.90;;
23472;SDS011;11909;52.516;13.564;2022-10-15T13:07:51;5.18;;;3.40;;
23472;SDS011;11909;52.516;13.564;2022-10-15T13:10:20;5.57;;;3.25;;
23472;SDS011;11909;52.516;13.564;2022-10-15T13:12:51;3.90;;;3.50;;
23472;SDS011;11909;52.516;13.564;2022-10-15T13:15:20;6.13;;;3.55;;
23472;SDS011;11909;52.516;13.564;2022-10-15T13:17:48;5.72;;;3.47;;
23472;SDS011;11909;52.516;13.564;2022-10-15T13:20:24;4.40;;;3.35;;
23472;SDS011;11909;52.516;13.564;2022-10-15T13:23:06;3.97;;;3.53;;
23472;SDS011;11909;52.516;13.564;2022-10-15T13:25:33;3.60;;;3.30;;
23472;SDS011;11909;52.516;13.564;2022-10-15T13:28:01;5.20;;;3.00;;
23472;SDS011;11909;52.516;13.564;2022-10-15T13:30:27;4.00;;;2.90;;
23472;SDS011;11909;52.516;13.564;2022-10-15T13:32:54;2.35;;;2.13;;
23472;SDS011;11909;52.516;13.564;2022-10-15T13:35:23;3.47;;;2.97;;
23472;SDS011;11909;52.516;13.564;2022-10-15T13:37:53;3.10;;;2.70;;
23472;SDS011;11909;52.516;13.564;2022-10-15T13:40:22;2.95;;;2.50;;
23472;SDS011;11909;52.516;13.564;2022-10-15T13:42:57;4.63;;;2.70;;
23472;SDS011;11909;52.516;13.564;2022-10-15T13:45:26;2.40;;;2.20;;
23472;SDS011;11909;52.516;13.564;2022-10-15T13:47:53;4.20;;;2.20;;
23472;SDS011;11909;52.516;13.564;2022-10-15T13:50:21;8.18;;;5.90;;
23472;SDS011;11909;52.516;13.564;2022-10-15T13:52:51;6.22;;;2.90;;
23472;SDS011;11909;52.516;13.564;2022-10-15T13:55:21;3.75;;;2.55;;
23472;SDS011;11909;52.516;13.564;2022-10-15T13:57:50;2.60;;;2.17;;
23472;SDS011;11909;52.516;13.564;2022-10-15T14:00:22;4.05;;;2.30;;
23472;SDS011;11909;52.516;13.564;2022-10-15T14:05:42;2.03;;;1.92;;
23472;SDS011;11909;52.516;13.564;2022-10-15T14:08:13;2.10;;;1.90;;
23472;SDS011;11909;52.516;13.564;2022-10-15T14:10:41;2.50;;;2.03;;
23472;SDS011;11909;52.516;13.564;2022-10-15T14:13:08;1.88;;;1.73;;
23472;SDS011;11909;52.516;13.564;2022-10-15T14:15:39;48.35;;;32.70;;
23472;SDS011;11909;52.516;13.564;2022-10-15T14:18:06;5.63;;;2.53;;
23472;SDS011;11909;52.516;13.564;2022-10-15T14:20:35;4.30;;;2.13;;
23472;SDS011;11909;52.516;13.564;2022-10-15T14:23:01;4.13;;;1.85;;
23472;SDS011;11909;52.516;13.564;2022-10-15T14:25:28;2.28;;;1.77;;
23472;SDS011;11909;52.516;13.564;2022-10-15T14:27:54;2.35;;;1.90;;
23472;SDS011;11909;52.516;13.564;2022-10-15T14:30:23;2.10;;;1.77;;
23472;SDS011;11909;52.516;13.564;2022-10-15T14:32:52;3.25;;;2.00;;
23472;SDS011;11909;52.516;13.564;2022-10-15T14:35:23;2.50;;;1.83;;
23472;SDS011;11909;52.516;13.564;2022-10-15T14:37:59;5.22;;;2.00;;
23472;SDS011;11909;52.516;13.564;2022-10-15T14:40:27;2.72;;;2.15;;
23472;SDS011;11909;52.516;13.564;2022-10-15T14:43:03;2.65;;;1.95;;
23472;SDS011;11909;52.516;13.564;2022-10-15T14:45:33;1.92;;;1.73;;
23472;SDS011;11909;52.516;13.564;2022-10-15T14:48:06;4.18;;;1.98;;
23472;SDS011;11909;52.516;13.564;2022-10-15T14:50:39;3.55;;;1.92;;